Time;durP1;ratioP1;P1;durP2;ratioP2;P2;SDS_P1;SDS_P2;PMS_P1;PMS_P2;Temp;Humidity;BMP_temperature;BMP_pressure;BME280_temperature;BME280_humidity;BME280_pressure;Samples;Min_cycle;Max_cycle;Signal;HPM_P1;HPM_P2
2023/05/27 00:01:45;;;;;;;10.98;4.38;;;10.20;99.90;11.30;94839.00;;;;7396810;19;20137;-74
2023/05/27 00:04:12;;;;;;;17.00;4.55;;;10.30;99.90;11.20;94828.00;;;;7396870;19;20580;-74
2023/05/27 00:06:52;;;;;;;10.25;3.80;;;10.20;99.90;11.10;94841.00;;;;7395000;19;20172;-74
2023/05/27 00:09:28;;;;;;;13.10;4.53;;;10.20;99.90;11.10;94835.00;;;;7398247;19;20541;-74
2023/05/27 00:11:55;;;;;;;9.30;3.88;;;10.20;99.90;11.20;94824.00;;;;7396680;19;20543;-74
2023/05/27 00:14:29;;;;;;;8.23;3.92;;;10.20;99.90;11.20;94829.00;;;;7396998;19;20123;-74
2023/05/27 00:17:04;;;;;;;9.60;3.95;;;10.20;99.90;11.00;94833.00;;;;7397364;19;20653;-74
2023/05/27 00:19:38;;;;;;;14.05;3.90;;;10.10;99.90;11.00;94830.00;;;;7397696;19;20144;-73
2023/05/27 00:22:13;;;;;;;10.70;3.90;;;10.10;99.90;10.90;94822.00;;;;7397028;19;20575;-73
2023/05/27 00:24:41;;;;;;;18.35;5.00;;;10.00;99.90;10.90;94831.00;;;;7396538;19;20129;-74
2023/05/27 00:27:17;;;;;;;10.13;4.35;;;10.00;99.90;10.90;94813.00;;;;7397567;19;20614;-74
2023/05/27 00:29:44;;;;;;;16.30;4.28;;;9.90;99.90;10.90;94816.00;;;;7397250;19;20623;-74
2023/05/27 00:32:11;;;;;;;10.10;4.38;;;9.90;99.90;10.90;94838.00;;;;7396429;19;20631;-74
2023/05/27 00:34:45;;;;;;;11.57;5.03;;;9.90;99.90;10.90;94827.00;;;;7396072;19;20137;-74
2023/05/27 00:37:18;;;;;;;14.30;4.35;;;9.90;99.90;11.00;94826.00;;;;7396682;19;20584;-74
2023/05/27 00:39:54;;;;;;;11.60;4.10;;;9.90;99.90;11.00;94829.00;;;;7396202;19;20564;-74
2023/05/27 00:42:27;;;;;;;10.43;4.05;;;9.90;99.90;10.90;94837.00;;;;7396156;19;20121;-74
2023/05/27 00:45:03;;;;;;;12.32;4.63;;;9.90;99.90;10.80;94831.00;;;;7396026;19;20678;-74
2023/05/27 00:47:37;;;;;;;11.95;4.25;;;9.80;99.90;10.80;94834.00;;;;7395363;19;20125;-74
2023/05/27 00:50:12;;;;;;;12.68;4.13;;;9.80;99.90;10.80;94821.00;;;;7393769;19;20603;-74
2023/05/27 00:52:45;;;;;;;14.47;4.57;;;9.80;99.90;10.90;94821.00;;;;7394099;19;20463;-74
2023/05/27 00:55:19;;;;;;;12.90;3.97;;;9.80;99.90;11.00;94825.00;;;;7397021;19;20156;-74
2023/05/27 00:57:47;;;;;;;10.27;4.13;;;9.90;99.90;11.20;94821.00;;;;7395350;19;20133;-74
2023/05/27 01:00:43;;;;;;;14.52;4.13;;;10.00;99.90;11.20;94768.00;;;;7403075;19;20584;-74
2023/05/27 01:03:24;;;;;;;9.73;4.03;;;10.00;99.90;11.20;94824.00;;;;7397258;19;20133;-68
2023/05/27 01:06:04;;;;;;;10.57;4.20;;;10.10;99.90;11.20;94802.00;;;;7405587;19;20192;-69
2023/05/27 01:09:01;;;;;;;10.13;4.65;;;10.20;99.90;11.40;94818.00;;;;7403922;19;20148;-69
2023/05/27 01:11:42;;;;;;;12.45;3.92;;;10.30;99.90;11.30;94811.00;;;;7402220;19;20158;-70
2023/05/27 01:14:18;;;;;;;10.32;4.10;;;10.40;99.90;11.20;94810.00;;;;7403855;19;20117;-68
2023/05/27 01:16:46;;;;;;;13.93;4.10;;;10.30;99.90;11.10;94818.00;;;;7402709;19;20125;-69
2023/05/27 01:19:34;;;;;;;14.13;4.15;;;10.30;99.90;11.10;94803.00;;;;7405053;19;20125;-68
2023/05/27 01:22:03;;;;;;;12.52;4.40;;;10.20;99.90;10.90;94802.00;;;;7400187;19;20143;-68
2023/05/27 01:24:37;;;;;;;13.85;3.75;;;10.20;99.90;10.80;94805.00;;;;7403264;19;20128;-69
2023/05/27 01:27:04;;;;;;;16.17;4.45;;;10.00;99.90;10.70;94785.00;;;;7404693;19;20136;-68
2023/05/27 01:29:40;;;;;;;14.00;4.47;;;9.90;99.90;10.50;94803.00;;;;7402579;19;20144;-68
2023/05/27 01:32:54;;;;;;;13.18;4.40;;;9.80;99.90;10.50;94797.00;;;;7402032;19;20156;-69
2023/05/27 01:35:45;;;;;;;9.10;3.92;;;9.70;99.90;10.50;94795.00;;;;7403150;19;20157;-68
2023/05/27 01:38:20;;;;;;;12.18;4.35;;;9.60;99.90;10.60;94796.00;;;;7402390;19;20136;-74
2023/05/27 01:40:55;;;;;;;12.93;4.10;;;9.60;99.90;10.40;94781.00;;;;7402930;19;20148;-70
2023/05/27 01:43:29;;;;;;;14.73;4.63;;;9.60;99.90;10.50;94793.00;;;;7400859;19;20144;-68
2023/05/27 01:45:57;;;;;;;15.55;4.20;;;9.50;99.90;10.50;94783.00;;;;7401527;19;20144;-73
2023/05/27 01:48:30;;;;;;;16.42;4.78;;;9.50;99.90;10.40;94778.00;;;;7403211;19;20150;-69
2023/05/27 01:50:57;;;;;;;11.97;4.40;;;9.40;99.90;10.10;94783.00;;;;7402410;19;20133;-69
2023/05/27 01:53:32;;;;;;;12.43;4.63;;;9.40;99.90;10.00;94783.00;;;;7401246;19;20575;-70
2023/05/27 01:56:05;;;;;;;13.47;4.27;;;9.20;99.90;9.90;94748.00;;;;7402008;19;20121;-70
2023/05/27 01:58:39;;;;;;;14.90;4.60;;;9.10;99.90;10.00;94778.00;;;;7402430;19;20196;-69
2023/05/27 02:01:13;;;;;;;11.20;4.40;;;9.10;99.90;10.10;94768.00;;;;7392085;19;20210;-68
2023/05/27 02:03:47;;;;;;;12.87;4.87;;;9.10;99.90;10.20;94771.00;;;;7398001;19;20180;-67
2023/05/27 02:06:22;;;;;;;14.03;4.40;;;9.10;99.90;10.00;94773.00;;;;7400389;19;20603;-71
2023/05/27 02:08:55;;;;;;;12.20;5.23;;;9.10;99.90;9.90;94759.00;;;;7401432;19;20605;-68
2023/05/27 02:11:23;;;;;;;17.00;4.60;;;9.10;99.90;10.10;94771.00;;;;7402969;19;20156;-68
2023/05/27 02:13:52;;;;;;;13.27;4.43;;;9.10;99.90;9.90;94764.00;;;;7402134;19;20125;-68
2023/05/27 02:16:25;;;;;;;15.10;4.33;;;9.00;99.90;9.70;94762.00;;;;7401439;19;20168;-68
2023/05/27 02:18:52;;;;;;;13.93;4.20;;;8.90;99.90;9.70;94767.00;;;;7403073;19;20484;-68
2023/05/27 02:21:26;;;;;;;12.67;4.40;;;8.90;99.90;9.70;94764.00;;;;7401622;19;20580;-69
2023/05/27 02:23:53;;;;;;;11.53;4.30;;;8.80;99.90;9.60;94764.00;;;;7398960;19;20140;-68
2023/05/27 02:26:28;;;;;;;15.07;4.70;;;8.70;99.90;9.80;94766.00;;;;7402285;19;20140;-69
2023/05/27 02:28:55;;;;;;;11.27;4.20;;;8.80;99.90;9.80;94766.00;;;;7400938;19;20129;-72
2023/05/27 02:31:28;;;;;;;13.27;4.13;;;8.80;99.90;9.70;94758.00;;;;7400924;19;20491;-68
2023/05/27 02:34:02;;;;;;;14.30;4.10;;;8.80;99.90;9.40;94758.00;;;;7400000;19;20141;-70
2023/05/27 02:36:36;;;;;;;12.90;4.60;;;8.70;99.90;9.50;94755.00;;;;7400355;19;20623;-69
2023/05/27 02:39:11;;;;;;;11.53;4.47;;;8.60;99.90;9.50;94720.00;;;;7402236;19;20124;-68
2023/05/27 02:41:44;;;;;;;16.70;5.00;;;8.60;99.90;9.40;94745.00;;;;7398793;19;20144;-69
2023/05/27 02:44:18;;;;;;;11.47;4.17;;;8.50;99.90;9.40;94742.00;;;;7401121;19;20488;-68
2023/05/27 02:46:52;;;;;;;13.47;4.50;;;8.50;99.90;9.30;94760.00;;;;7400441;19;20148;-68
2023/05/27 02:49:20;;;;;;;16.70;5.03;;;8.50;99.90;9.30;94740.00;;;;7401617;19;20157;-68
2023/05/27 02:51:47;;;;;;;14.30;4.87;;;8.50;99.90;9.30;94747.00;;;;7400198;19;20152;-68
2023/05/27 02:54:20;;;;;;;16.37;5.30;;;8.50;99.90;9.30;94741.00;;;;7401281;19;20571;-68
2023/05/27 02:56:54;;;;;;;12.50;4.43;;;8.50;99.90;9.40;94763.00;;;;7401342;19;20125;-69
2023/05/27 02:59:21;;;;;;;16.23;4.80;;;8.50;99.90;9.30;94760.00;;;;7400643;19;20125;-69
2023/05/27 03:02:09;;;;;;;16.67;4.63;;;8.50;99.90;9.20;94751.00;;;;7396285;19;20193;-70
2023/05/27 03:04:37;;;;;;;13.50;4.27;;;8.40;99.90;9.20;94760.00;;;;7396279;19;20137;-69
2023/05/27 03:07:11;;;;;;;16.33;4.90;;;8.40;99.90;9.10;94749.00;;;;7400385;19;20156;-69
2023/05/27 03:09:44;;;;;;;14.23;4.27;;;8.30;99.90;9.00;94726.00;;;;7398926;19;20154;-68
2023/05/27 03:12:11;;;;;;;15.50;5.30;;;8.30;99.90;9.10;94750.00;;;;7398596;19;20148;-68
2023/05/27 03:14:45;;;;;;;12.40;4.70;;;8.30;99.90;9.00;94725.00;;;;7399166;19;20512;-68
2023/05/27 03:17:20;;;;;;;13.33;4.70;;;8.20;99.90;9.00;94754.00;;;;7400342;19;20145;-69
2023/05/27 03:19:53;;;;;;;15.60;5.00;;;8.30;99.90;8.90;94745.00;;;;7395201;19;20153;-68
2023/05/27 03:22:27;;;;;;;12.60;4.27;;;8.20;99.90;9.10;94750.00;;;;7396036;19;20145;-71
2023/05/27 03:25:01;;;;;;;11.23;4.63;;;8.20;99.90;9.00;94749.00;;;;7397040;19;20497;-68
2023/05/27 03:27:36;;;;;;;15.27;4.80;;;8.20;99.90;9.00;94750.00;;;;7397598;19;20622;-69
2023/05/27 03:30:07;;;;;;;12.17;5.20;;;8.10;99.90;8.90;94728.00;;;;7399147;19;20129;-68
2023/05/27 03:32:40;;;;;;;13.00;4.60;;;8.10;99.90;8.80;94758.00;;;;7398711;19;20121;-68
2023/05/27 03:35:08;;;;;;;11.07;4.43;;;8.10;99.90;8.70;94742.00;;;;7397613;19;20149;-68
2023/05/27 03:37:41;;;;;;;22.97;5.60;;;8.00;99.90;8.80;94751.00;;;;7397004;19;20117;-68
2023/05/27 03:40:09;;;;;;;14.30;4.67;;;8.00;99.90;8.90;94728.00;;;;7396406;19;20120;-71
2023/05/27 03:42:43;;;;;;;16.63;4.90;;;8.00;99.90;8.90;94743.00;;;;7396098;19;20172;-68
2023/05/27 03:45:10;;;;;;;19.80;5.17;;;8.10;99.90;8.80;94748.00;;;;7397970;19;20136;-68
2023/05/27 03:47:44;;;;;;;16.20;4.63;;;8.00;99.90;8.80;94743.00;;;;7398618;19;20148;-67
2023/05/27 03:50:18;;;;;;;11.43;4.60;;;8.00;99.90;8.80;94745.00;;;;7397531;19;20143;-68
2023/05/27 03:52:52;;;;;;;17.23;5.17;;;7.90;99.90;8.70;94751.00;;;;7399450;19;20132;-68
2023/05/27 03:55:22;;;;;;;11.30;4.97;;;7.90;99.90;8.80;94736.00;;;;7397273;19;20141;-69
2023/05/27 03:57:56;;;;;;;20.13;4.80;;;7.90;99.90;8.90;94745.00;;;;7397285;19;20607;-68
2023/05/27 04:00:30;;;;;;;16.97;4.73;;;8.00;99.90;8.90;94737.00;;;;7396869;19;20130;-68
2023/05/27 04:02:58;;;;;;;15.83;5.20;;;8.00;99.90;9.00;94759.00;;;;7397483;19;20153;-69
2023/05/27 04:05:32;;;;;;;16.27;5.50;;;8.10;99.90;9.00;94757.00;;;;7396372;19;20124;-77
2023/05/27 04:08:05;;;;;;;17.83;5.63;;;8.10;99.90;9.00;94748.00;;;;7396836;19;20180;-75
2023/05/27 04:10:39;;;;;;;16.87;6.00;;;8.20;99.90;9.00;94746.00;;;;7392914;19;20144;-76
2023/05/27 04:13:14;;;;;;;14.87;4.70;;;8.10;99.90;9.10;94717.00;;;;7398537;19;20128;-74
2023/05/27 04:15:48;;;;;;;13.77;4.53;;;8.20;99.90;9.10;94745.00;;;;7395081;19;20128;-77
2023/05/27 04:18:16;;;;;;;12.33;5.50;;;8.20;99.90;9.20;94745.00;;;;7395861;19;20542;-82
2023/05/27 04:20:50;;;;;;;15.60;5.33;;;8.20;99.90;9.20;94738.00;;;;7392033;19;20129;-74
2023/05/27 04:23:24;;;;;;;19.10;5.23;;;8.30;99.90;9.30;94708.00;;;;7396266;19;20133;-75
2023/05/27 04:25:57;;;;;;;15.60;5.67;;;8.30;99.90;9.30;94731.00;;;;7398448;19;20597;-74
2023/05/27 04:28:34;;;;;;;13.20;5.20;;;8.40;99.90;9.30;94731.00;;;;7396596;19;20187;-75
2023/05/27 04:31:12;;;;;;;15.90;4.80;;;8.30;99.90;9.40;94716.00;;;;7395945;19;20180;-75
2023/05/27 04:33:39;;;;;;;17.77;4.80;;;8.30;99.90;9.40;94733.00;;;;7398405;19;20153;-74
2023/05/27 04:36:16;;;;;;;19.77;4.97;;;8.50;99.90;9.40;94729.00;;;;7403756;19;20160;-75
2023/05/27 04:38:45;;;;;;;13.10;5.17;;;8.50;99.90;9.50;94738.00;;;;7404579;19;20141;-75
2023/05/27 04:41:28;;;;;;;16.23;4.73;;;8.50;99.90;9.60;94719.00;;;;7398846;19;20481;-75
2023/05/27 04:44:01;;;;;;;13.93;4.70;;;8.60;99.90;9.60;94727.00;;;;7399233;19;20452;-75
2023/05/27 04:46:35;;;;;;;18.07;4.30;;;8.70;99.90;9.80;94721.00;;;;7400574;19;20611;-74
2023/05/27 04:49:02;;;;;;;13.20;4.97;;;8.90;99.90;9.90;94732.00;;;;7405165;19;20489;-74
2023/05/27 04:51:37;;;;;;;11.63;4.53;;;8.90;99.90;9.90;94736.00;;;;7403118;19;20599;-74
2023/05/27 04:54:05;;;;;;;15.25;4.78;;;9.00;99.90;9.90;94731.00;;;;7405048;19;20127;-75
2023/05/27 04:56:39;;;;;;;13.00;5.17;;;9.10;99.90;10.20;94709.00;;;;7403303;19;20125;-74
2023/05/27 04:59:16;;;;;;;14.50;4.45;;;9.20;99.90;10.30;94728.00;;;;7396516;19;20147;-76
2023/05/27 05:02:09;;;;;;;17.03;5.10;;;9.30;99.90;10.40;94715.00;;;;7399133;19;20179;-75
2023/05/27 05:04:43;;;;;;;16.77;4.73;;;9.40;99.90;10.60;94715.00;;;;7398676;19;20489;-75
2023/05/27 05:07:19;;;;;;;17.30;5.30;;;9.50;26.40;10.70;94726.00;;;;7400406;19;20456;-76
2023/05/27 05:09:46;;;;;;;13.73;4.70;;;9.60;3.70;10.90;94705.00;;;;7402479;19;20137;-74
2023/05/27 05:12:20;;;;;;;12.55;5.03;;;9.70;1.00;10.90;94725.00;;;;7403970;19;20128;-75
2023/05/27 05:14:55;;;;;;;16.63;5.17;;;9.90;1.00;11.10;94725.00;;;;7401862;19;20117;-75
2023/05/27 05:17:29;;;;;;;15.70;4.97;;;10.00;1.00;11.30;94711.00;;;;7403693;19;20138;-74
2023/05/27 05:19:57;;;;;;;15.27;4.38;;;10.10;1.00;11.30;94722.00;;;;7395294;19;20127;-76
2023/05/27 05:22:31;;;;;;;13.70;4.43;;;10.20;1.00;11.30;94731.00;;;;7398007;19;20149;-73
2023/05/27 05:24:58;;;;;;;14.38;4.32;;;10.40;1.00;11.60;94740.00;;;;7398421;19;20142;-74
2023/05/27 05:27:32;;;;;;;13.77;5.13;;;10.50;1.00;11.80;94734.00;;;;7402568;19;20167;-74
2023/05/27 05:30:00;;;;;;;15.55;4.95;;;10.60;1.00;11.80;94727.00;;;;7400531;19;20551;-75
2023/05/27 05:32:33;;;;;;;12.10;4.43;;;10.70;1.00;12.00;94735.00;;;;7401158;19;20172;-75
2023/05/27 05:35:01;;;;;;;13.65;4.35;;;10.80;1.00;12.10;94734.00;;;;7402745;19;20137;-75
2023/05/27 05:37:28;;;;;;;17.48;5.20;;;10.90;1.00;12.20;94724.00;;;;7403555;19;20486;-74
2023/05/27 05:40:02;;;;;;;12.82;5.05;;;11.00;1.00;12.30;94739.00;;;;7400334;19;20584;-75
2023/05/27 05:42:35;;;;;;;11.15;4.47;;;11.10;1.00;12.40;94734.00;;;;7402909;19;20128;-75
2023/05/27 05:45:09;;;;;;;11.00;4.22;;;11.20;1.00;12.50;94734.00;;;;7399472;19;20160;-74
2023/05/27 05:47:43;;;;;;;13.57;4.30;;;11.20;1.00;12.60;94734.00;;;;7402315;19;20117;-74
2023/05/27 05:50:12;;;;;;;12.35;4.53;;;11.40;1.00;12.70;94746.00;;;;7400098;19;20579;-74
2023/05/27 05:52:45;;;;;;;15.32;4.72;;;11.50;1.00;12.90;94732.00;;;;7401088;19;20141;-75
2023/05/27 05:55:20;;;;;;;16.90;4.90;;;11.60;1.00;13.10;94714.00;;;;7402166;19;20133;-73
2023/05/27 05:57:54;;;;;;;12.52;4.00;;;11.80;82.10;13.30;94729.00;;;;7400141;19;20517;-74
2023/05/27 06:00:23;;;;;;;14.48;4.53;;;12.00;45.50;13.50;94703.00;;;;7401357;19;20140;-74
2023/05/27 06:03:04;;;;;;;15.27;5.00;;;12.10;1.00;13.60;94709.00;;;;7392758;19;20188;-75
2023/05/27 06:05:38;;;;;;;14.20;4.70;;;12.20;1.00;13.80;94731.00;;;;7392369;19;20575;-74
2023/05/27 06:08:12;;;;;;;17.27;4.93;;;12.50;1.00;14.00;94724.00;;;;7396520;19;20181;-75
2023/05/27 06:10:39;;;;;;;17.20;4.88;;;12.80;1.00;14.20;94717.00;;;;7395480;19;20136;-75
2023/05/27 06:13:12;;;;;;;13.00;3.88;;;13.00;20.50;14.30;94732.00;;;;7391806;19;20497;-74
2023/05/27 06:15:41;;;;;;;12.65;4.53;;;;;14.50;94727.00;;;;7399357;19;20212;-74
2023/05/27 06:18:16;;;;;;;12.63;4.53;;;;;14.80;94719.00;;;;7396237;19;20127;-74
2023/05/27 06:20:43;;;;;;;13.43;5.05;;;14.10;99.90;15.30;94721.00;;;;7396841;19;20150;-74
2023/05/27 06:23:17;;;;;;;12.63;4.90;;;14.40;39.20;15.40;94711.00;;;;7395884;19;20624;-74
2023/05/27 06:25:51;;;;;;;15.70;4.65;;;14.70;1.00;15.50;94721.00;;;;7399996;19;20144;-74
2023/05/27 06:28:25;;;;;;;15.40;4.65;;;14.90;1.00;16.10;94726.00;;;;7398894;19;20464;-75
2023/05/27 06:30:58;;;;;;;11.65;4.18;;;15.00;1.00;16.20;94725.00;;;;7397545;19;20484;-74
2023/05/27 06:33:29;;;;;;;9.07;4.28;;;;;16.60;94718.00;;;;7399702;19;20125;-74
2023/05/27 06:35:56;;;;;;;14.38;4.63;;;15.00;99.90;16.60;94703.00;;;;7397765;19;20530;-73
2023/05/27 06:38:29;;;;;;;11.75;4.25;;;15.10;99.90;16.50;94715.00;;;;7397653;19;20583;-74
2023/05/27 06:41:04;;;;;;;13.80;4.75;;;15.00;99.90;16.80;94713.00;;;;7398819;19;20594;-74
2023/05/27 06:43:37;;;;;;;13.02;4.55;;;15.10;29.10;17.20;94675.00;;;;7397454;19;20136;-74
2023/05/27 06:46:04;;;;;;;11.43;4.63;;;15.20;1.00;17.70;94685.00;;;;7399420;19;20149;-74
2023/05/27 06:48:38;;;;;;;12.73;4.88;;;15.30;1.00;17.50;94716.00;;;;7399542;19;20624;-75
2023/05/27 06:51:06;;;;;;;12.93;4.38;;;15.40;1.00;17.00;94706.00;;;;7398135;19;20188;-74
2023/05/27 06:53:40;;;;;;;16.17;5.32;;;15.60;1.00;17.50;94712.00;;;;7400240;19;20125;-75
2023/05/27 06:56:07;;;;;;;11.13;4.38;;;15.80;1.00;17.00;94704.00;;;;7396100;19;20133;-74
2023/05/27 06:58:41;;;;;;;13.48;4.65;;;15.80;1.00;17.20;94709.00;;;;7397520;19;20591;-74
2023/05/27 07:01:08;;;;;;;13.65;4.32;;;15.90;1.00;17.40;94707.00;;;;7397027;19;20149;-75
2023/05/27 07:03:55;;;;;;;15.00;4.60;;;15.90;1.00;17.50;94713.00;;;;6897430;19;9756048;-74
2023/05/27 07:06:29;;;;;;;9.77;4.32;;;16.00;1.00;17.40;94718.00;;;;7396025;19;20161;-74
2023/05/27 07:09:04;;;;;;;10.13;4.55;;;15.90;1.00;17.40;94721.00;;;;7399459;19;20612;-75
2023/05/27 07:11:37;;;;;;;12.73;5.05;;;15.90;1.00;17.40;94727.00;;;;7399899;19;20148;-74
2023/05/27 07:14:11;;;;;;;16.02;5.07;;;16.00;1.00;17.30;94723.00;;;;7398913;19;20117;-74
2023/05/27 07:16:46;;;;;;;13.18;4.93;;;16.00;1.00;17.30;94729.00;;;;7401244;19;20131;-75
2023/05/27 07:19:19;;;;;;;9.30;4.38;;;16.10;1.00;17.50;94733.00;;;;7399101;19;20132;-74
2023/05/27 07:21:47;;;;;;;10.50;4.85;;;16.20;1.00;17.50;94715.00;;;;7400563;19;20132;-75
2023/05/27 07:24:26;;;;;;;11.50;5.00;;;16.20;1.00;17.60;94728.00;;;;7398986;19;20133;-74
2023/05/27 07:27:00;;;;;;;17.13;5.40;;;16.20;1.00;17.90;94729.00;;;;7400727;19;20148;-75
2023/05/27 07:29:34;;;;;;;13.82;5.47;;;16.30;1.00;17.90;94721.00;;;;7401534;19;20117;-75
2023/05/27 07:32:02;;;;;;;12.27;4.68;;;16.40;1.00;18.10;94731.00;;;;7401784;19;20149;-75
2023/05/27 07:34:35;;;;;;;10.90;4.88;;;16.50;1.00;18.40;94722.00;;;;7399939;19;20144;-75
2023/05/27 07:37:03;;;;;;;9.60;4.30;;;16.50;1.00;18.30;94727.00;;;;7400607;19;20137;-75
2023/05/27 07:39:36;;;;;;;13.05;4.82;;;16.50;1.00;17.90;94726.00;;;;7398539;19;20129;-73
2023/05/27 07:42:05;;;;;;;13.85;4.97;;;16.60;1.00;18.60;94711.00;;;;7401706;19;20125;-74
2023/05/27 07:44:38;;;;;;;14.05;5.18;;;16.70;1.00;18.70;94726.00;;;;7399609;19;20125;-75
2023/05/27 07:47:12;;;;;;;13.48;5.60;;;16.70;1.00;18.70;94726.00;;;;7400806;19;20490;-74
2023/05/27 07:49:40;;;;;;;15.50;6.07;;;16.80;1.00;18.30;94693.00;;;;7398680;19;20184;-74
2023/05/27 07:52:13;;;;;;;13.60;5.88;;;16.80;1.00;18.30;94715.00;;;;7400953;19;20137;-73
2023/05/27 07:54:48;;;;;;;9.35;5.65;;;16.90;1.00;18.50;94717.00;;;;7400544;19;20132;-74
2023/05/27 07:57:21;;;;;;;21.60;9.35;;;16.90;1.00;18.50;94715.00;;;;7400605;19;20128;-75
2023/05/27 07:59:55;;;;;;;16.92;9.10;;;16.90;1.00;18.70;94710.00;;;;7400852;19;20185;-76
2023/05/27 08:02:23;;;;;;;20.50;12.00;;;17.00;1.00;18.60;94721.00;;;;7395464;19;20184;-75
2023/05/27 08:05:03;;;;;;;22.27;10.68;;;17.00;1.00;19.00;94710.00;;;;7398070;19;20144;-74
2023/05/27 08:07:37;;;;;;;16.35;8.38;;;17.20;1.00;19.00;94710.00;;;;7399705;19;20588;-73
2023/05/27 08:10:11;;;;;;;22.55;11.52;;;17.40;1.00;19.40;94688.00;;;;7398916;19;20149;-74
2023/05/27 08:12:38;;;;;;;13.35;6.45;;;17.60;1.00;19.30;94704.00;;;;7398438;19;20493;-74
2023/05/27 08:15:13;;;;;;;13.45;6.63;;;17.70;1.00;19.40;94699.00;;;;7397224;19;20580;-75
2023/05/27 08:17:40;;;;;;;18.92;9.80;;;17.80;1.00;19.60;94708.00;;;;7398188;19;20612;-76
2023/05/27 08:20:14;;;;;;;15.50;7.68;;;18.00;1.00;19.70;94705.00;;;;7400237;19;20121;-75
2023/05/27 08:22:43;;;;;;;13.77;6.10;;;18.10;1.00;20.10;94700.00;;;;7400588;19;20587;-75
2023/05/27 08:25:10;;;;;;;19.23;7.60;;;18.30;1.00;20.20;94697.00;;;;7396462;19;20568;-75
2023/05/27 08:27:53;;;;;;;12.98;6.85;;;18.50;1.00;20.60;94700.00;;;;7398280;19;20471;-76
2023/05/27 08:30:21;;;;;;;11.57;6.07;;;18.40;1.00;20.70;94690.00;;;;7396431;19;20161;-75
2023/05/27 08:32:56;;;;;;;13.27;6.43;;;18.50;1.00;20.40;94701.00;;;;7399179;19;20127;-74
2023/05/27 08:35:23;;;;;;;11.05;5.75;;;18.70;1.00;20.60;94693.00;;;;7397155;19;20196;-73
2023/05/27 08:37:57;;;;;;;14.15;5.47;;;18.80;1.00;20.50;94694.00;;;;7396124;19;20132;-75
2023/05/27 08:40:25;;;;;;;16.08;6.13;;;18.80;1.00;20.90;94690.00;;;;7398125;19;20591;-74
2023/05/27 08:42:59;;;;;;;11.15;4.90;;;18.90;1.00;20.50;94684.00;;;;7397595;19;20185;-74
2023/05/27 08:45:26;;;;;;;13.63;6.68;;;19.00;99.90;20.30;94683.00;;;;7396283;19;20161;-75
2023/05/27 08:47:54;;;;;;;14.68;6.28;;;19.00;86.10;20.70;94684.00;;;;7397362;19;20129;-74
2023/05/27 08:50:28;;;;;;;13.45;6.03;;;18.90;42.40;21.10;94684.00;;;;7398052;19;20594;-76
2023/05/27 08:52:55;;;;;;;16.05;5.47;;;19.00;2.60;21.20;94698.00;;;;7398937;19;20490;-74
2023/05/27 08:55:33;;;;;;;10.82;5.35;;;19.40;1.00;21.10;94691.00;;;;7399250;19;20615;-74
2023/05/27 08:58:02;;;;;;;11.90;5.22;;;19.50;1.00;21.60;94688.00;;;;7398636;19;20471;-75
2023/05/27 09:00:37;;;;;;;17.40;5.93;;;19.60;1.00;21.10;94695.00;;;;7393981;19;20116;-74
2023/05/27 09:03:17;;;;;;;14.32;6.53;;;19.50;1.00;21.30;94680.00;;;;7392967;19;20166;-75
2023/05/27 09:05:51;;;;;;;13.50;6.25;;;19.60;1.00;20.90;94681.00;;;;7395096;19;20137;-75
2023/05/27 09:08:25;;;;;;;11.23;5.70;;;19.50;1.00;21.30;94681.00;;;;7398223;19;20129;-72
2023/05/27 09:11:26;;;;;;;14.18;5.60;;;19.70;1.00;21.70;94665.00;;;;7399209;19;20133;-73
2023/05/27 09:13:55;;;;;;;15.38;6.00;;;19.90;1.00;22.40;94685.00;;;;7397249;19;20129;-74
2023/05/27 09:16:30;;;;;;;16.45;6.07;;;20.00;1.00;22.00;94683.00;;;;7396826;19;20133;-74
2023/05/27 09:18:57;;;;;;;12.38;5.68;;;20.20;1.00;22.00;94675.00;;;;7396496;19;20600;-75
2023/05/27 09:21:30;;;;;;;13.32;5.63;;;20.50;60.20;22.40;94665.00;;;;7403300;19;20606;-74
2023/05/27 09:23:58;;;;;;;13.18;5.80;;;20.70;44.60;22.20;94683.00;;;;7404512;19;20467;-74
2023/05/27 09:26:33;;;;;;;14.32;6.05;;;20.60;23.90;22.30;94682.00;;;;7404799;19;20136;-77
2023/05/27 09:29:03;;;;;;;13.60;6.40;;;20.60;1.00;22.60;94676.00;;;;7404737;19;20121;-73
2023/05/27 09:31:41;;;;;;;13.73;6.70;;;20.70;1.00;22.30;94673.00;;;;7403198;19;20606;-75
2023/05/27 09:34:16;;;;;;;12.70;6.88;;;20.50;1.00;22.30;94677.00;;;;7403332;19;20121;-75
2023/05/27 09:36:45;;;;;;;14.30;6.25;;;20.60;1.00;21.70;94671.00;;;;7399360;19;20151;-73
2023/05/27 09:39:22;;;;;;;11.13;6.10;;;20.60;48.60;22.10;94667.00;;;;7395989;19;20136;-70
2023/05/27 09:41:56;;;;;;;12.75;6.13;;;20.60;71.90;22.10;94675.00;;;;7404915;19;20176;-71
2023/05/27 09:44:40;;;;;;;13.70;5.63;;;20.90;87.60;22.20;94669.00;;;;7402638;19;20142;-71
2023/05/27 09:47:10;;;;;;;13.90;6.85;;;21.10;40.60;22.40;94669.00;;;;7401377;19;20127;-71
2023/05/27 09:49:49;;;;;;;11.15;5.82;;;21.30;13.50;22.80;94667.00;;;;7402874;19;20125;-70
2023/05/27 09:52:24;;;;;;;12.77;6.05;;;21.50;12.30;22.90;94671.00;;;;7401896;19;20643;-71
2023/05/27 09:54:54;;;;;;;12.00;6.35;;;21.60;1.00;23.20;94653.00;;;;7404016;19;20150;-71
2023/05/27 09:57:30;;;;;;;10.65;5.60;;;21.60;5.20;23.10;94669.00;;;;7404393;19;20145;-71
2023/05/27 10:00:01;;;;;;;12.45;5.97;;;21.50;6.40;23.30;94663.00;;;;7403633;19;20143;-71
2023/05/27 10:02:36;;;;;;;15.52;6.20;;;21.70;1.00;23.50;94658.00;;;;7394974;19;20647;-72
2023/05/27 10:05:20;;;;;;;10.57;5.32;;;21.70;1.00;23.70;94650.00;;;;7397270;19;20599;-72
2023/05/27 10:07:47;;;;;;;16.35;8.23;;;21.70;1.00;23.70;94661.00;;;;7403578;19;20162;-72
2023/05/27 10:10:40;;;;;;;13.02;5.35;;;21.70;1.00;23.20;94664.00;;;;7401995;19;20212;-72
2023/05/27 10:13:08;;;;;;;11.05;5.93;;;21.80;1.00;23.40;94658.00;;;;7402449;19;20136;-73
2023/05/27 10:15:49;;;;;;;14.20;5.88;;;21.70;1.00;23.80;94654.00;;;;7397806;19;20546;-72
2023/05/27 10:18:31;;;;;;;13.25;6.25;;;21.90;1.00;23.80;94654.00;;;;7397444;19;20208;-72
2023/05/27 10:21:06;;;;;;;14.02;6.18;;;22.10;1.00;24.10;94649.00;;;;7401599;19;20152;-72
2023/05/27 10:23:39;;;;;;;12.10;5.88;;;22.10;1.00;24.20;94638.00;;;;7395252;19;20136;-74
2023/05/27 10:26:13;;;;;;;13.00;5.72;;;22.40;1.00;24.00;94637.00;;;;7397375;19;20160;-74
2023/05/27 10:28:42;;;;;;;12.20;5.55;;;22.50;1.00;24.40;94653.00;;;;7402388;19;20595;-71
2023/05/27 10:31:18;;;;;;;15.30;5.75;;;22.80;1.00;24.00;94641.00;;;;7399030;19;20450;-72
2023/05/27 10:33:49;;;;;;;16.48;6.03;;;23.00;1.00;24.40;94648.00;;;;7400554;19;20141;-71
2023/05/27 10:36:31;;;;;;;10.95;5.28;;;23.20;1.00;24.40;94637.00;;;;7400664;19;20144;-72
2023/05/27 10:39:13;;;;;;;8.77;4.90;;;23.30;1.00;24.00;94614.00;;;;7400037;19;20121;-73
2023/05/27 10:41:49;;;;;;;12.90;5.88;;;23.60;1.00;24.50;94645.00;;;;7402602;19;20132;-72
2023/05/27 10:44:41;;;;;;;10.35;5.90;;;23.50;1.00;24.10;94627.00;;;;7401028;19;20125;-72
2023/05/27 10:47:15;;;;;;;13.32;5.88;;;23.30;1.00;24.90;94627.00;;;;7399369;19;20124;-72
2023/05/27 10:49:49;;;;;;;10.60;5.50;;;23.40;1.00;25.00;94628.00;;;;7400182;19;20588;-71
2023/05/27 10:52:17;;;;;;;9.13;5.25;;;23.60;1.00;24.10;94634.00;;;;7399662;19;20778;-72
2023/05/27 10:54:53;;;;;;;9.70;5.70;;;23.70;1.00;24.70;94620.00;;;;7401219;19;20125;-72
2023/05/27 10:57:22;;;;;;;9.90;5.38;;;23.70;1.00;25.60;94641.00;;;;7399437;19;20121;-72
2023/05/27 11:00:03;;;;;;;11.82;5.63;;;23.90;1.00;26.10;94641.00;;;;7400317;19;20136;-73
2023/05/27 11:02:32;;;;;;;12.65;6.07;;;24.00;1.00;26.20;94642.00;;;;7397291;19;20626;-72
2023/05/27 11:05:20;;;;;;;13.02;6.10;;;24.40;1.00;26.20;94645.00;;;;7398351;19;20139;-72
2023/05/27 11:07:55;;;;;;;10.40;5.82;;;24.80;1.00;26.30;94636.00;;;;7399520;19;20137;-72
2023/05/27 11:10:29;;;;;;;10.27;5.95;;;25.00;1.00;26.40;94637.00;;;;7401536;19;20133;-72
2023/05/27 11:12:56;;;;;;;10.50;5.55;;;24.80;1.00;26.20;94631.00;;;;7399067;19;20923;-72
2023/05/27 11:15:30;;;;;;;14.48;5.85;;;25.10;1.00;26.40;94613.00;;;;7399821;19;20449;-73
2023/05/27 11:18:04;;;;;;;10.90;5.60;;;25.30;1.00;26.80;94626.00;;;;7399383;19;20149;-71
2023/05/27 11:20:38;;;;;;;12.20;6.20;;;25.20;1.00;26.20;94628.00;;;;7399070;19;20140;-72
2023/05/27 11:23:05;;;;;;;10.30;5.38;;;25.40;1.00;26.70;94616.00;;;;7400791;19;20660;-72
2023/05/27 11:25:43;;;;;;;8.95;5.70;;;25.80;1.00;26.90;94630.00;;;;7400663;19;20124;-73